sensor_id;sensor_type;location;lat;lon;timestamp;temperature;humidity
27439;DHT22;14887;51.252;7.470;2023-05-10T00:00:01;11.20;99.90
27439;DHT22;14887;51.252;7.470;2023-05-10T00:02:26;11.20;99.90
27439;DHT22;14887;51.252;7.470;2023-05-10T00:04:52;11.20;99.90
27439;DHT22;14887;51.252;7.470;2023-05-10T00:07:17;11.20;99.90
27439;DHT22;14887;51.252;7.470;2023-05-10T00:09:43;11.20;99.90
27439;DHT22;14887;51.252;7.470;2023-05-10T00:12:09;11.20;99.90
27439;DHT22;14887;51.252;7.470;2023-05-10T00:14:35;11.20;99.90
27439;DHT22;14887;51.252;7.470;2023-05-10T00:17:00;11.20;99.90
27439;DHT22;14887;51.252;7.470;2023-05-10T00:19:26;11.10;99.90
27439;DHT22;14887;51.252;7.470;2023-05-10T00:21:51;11.20;99.90
27439;DHT22;14887;51.252;7.470;2023-05-10T00:24:17;11.20;99.90
27439;DHT22;14887;51.252;7.470;2023-05-10T00:26:42;11.10;99.90
27439;DHT22;14887;51.252;7.470;2023-05-10T00:29:08;11.10;99.90
27439;DHT22;14887;51.252;7.470;2023-05-10T00:31:34;11.20;99.90
27439;DHT22;14887;51.252;7.470;2023-05-10T00:33:59;11.10;99.90
27439;DHT22;14887;51.252;7.470;2023-05-10T00:36:25;11.10;99.90
27439;DHT22;14887;51.252;7.470;2023-05-10T00:38:51;11.10;99.90
27439;DHT22;14887;51.252;7.470;2023-05-10T00:41:16;11.10;99.90
27439;DHT22;14887;51.252;7.470;2023-05-10T00:43:42;11.10;99.90
27439;DHT22;14887;51.252;7.470;2023-05-10T00:46:08;11.10;99.90
27439;DHT22;14887;51.252;7.470;2023-05-10T00:48:33;11.00;99.90
27439;DHT22;14887;51.252;7.470;2023-05-10T00:51:01;11.00;99.90
27439;DHT22;14887;51.252;7.470;2023-05-10T00:53:26;11.00;99.90
27439;DHT22;14887;51.252;7.470;2023-05-10T00:55:52;11.10;99.90
27439;DHT22;14887;51.252;7.470;2023-05-10T00:58:18;11.00;99.90
27439;DHT22;14887;51.252;7.470;2023-05-10T01:00:46;11.00;99.90
27439;DHT22;14887;51.252;7.470;2023-05-10T01:03:12;11.00;99.90
27439;DHT22;14887;51.252;7.470;2023-05-10T01:05:38;10.90;99.90
27439;DHT22;14887;51.252;7.470;2023-05-10T01:08:04;11.00;99.90
27439;DHT22;14887;51.252;7.470;2023-05-10T01:10:30;10.90;99.90
27439;DHT22;14887;51.252;7.470;2023-05-10T01:12:56;10.90;99.90
27439;DHT22;14887;51.252;7.470;2023-05-10T01:15:22;10.90;99.90
27439;DHT22;14887;51.252;7.470;2023-05-10T01:17:49;10.90;99.90
27439;DHT22;14887;51.252;7.470;2023-05-10T01:20:14;10.90;99.90
27439;DHT22;14887;51.252;7.470;2023-05-10T01:33:25;11.00;99.90
27439;DHT22;14887;51.252;7.470;2023-05-10T01:35:59;11.00;99.90
27439;DHT22;14887;51.252;7.470;2023-05-10T01:41:25;11.00;99.90
27439;DHT22;14887;51.252;7.470;2023-05-10T01:44:04;11.00;99.90
27439;DHT22;14887;51.252;7.470;2023-05-10T01:46:37;11.00;99.90
27439;DHT22;14887;51.252;7.470;2023-05-10T01:49:11;11.10;99.90
27439;DHT22;14887;51.252;7.470;2023-05-10T01:51:45;11.10;99.90
27439;DHT22;14887;51.252;7.470;2023-05-10T01:54:13;11.00;99.90
27439;DHT22;14887;51.252;7.470;2023-05-10T01:56:40;11.10;99.90
27439;DHT22;14887;51.252;7.470;2023-05-10T01:59:12;11.10;99.90
27439;DHT22;14887;51.252;7.470;2023-05-10T02:01:40;11.00;99.90
27439;DHT22;14887;51.252;7.470;2023-05-10T02:04:07;11.00;99.90
27439;DHT22;14887;51.252;7.470;2023-05-10T02:06:34;11.00;99.90
27439;DHT22;14887;51.252;7.470;2023-05-10T02:09:01;11.10;99.90
27439;DHT22;14887;51.252;7.470;2023-05-10T02:11:28;11.00;99.90
27439;DHT22;14887;51.252;7.470;2023-05-10T02:13:55;11.00;99.90
27439;DHT22;14887;51.252;7.470;2023-05-10T02:16:24;11.00;99.90
27439;DHT22;14887;51.252;7.470;2023-05-10T02:18:52;11.00;99.90
27439;DHT22;14887;51.252;7.470;2023-05-10T02:21:19;11.00;99.90
27439;DHT22;14887;51.252;7.470;2023-05-10T02:23:46;11.00;99.90
27439;DHT22;14887;51.252;7.470;2023-05-10T02:26:14;11.00;99.90
27439;DHT22;14887;51.252;7.470;2023-05-10T02:28:40;11.00;99.90
27439;DHT22;14887;51.252;7.470;2023-05-10T02:31:07;11.10;99.90
27439;DHT22;14887;51.252;7.470;2023-05-10T02:33:36;11.00;99.90
27439;DHT22;14887;51.252;7.470;2023-05-10T02:36:03;11.00;99.90
27439;DHT22;14887;51.252;7.470;2023-05-10T02:38:31;11.00;99.90
27439;DHT22;14887;51.252;7.470;2023-05-10T02:40:59;11.00;99.90
27439;DHT22;14887;51.252;7.470;2023-05-10T02:43:28;11.00;99.90
27439;DHT22;14887;51.252;7.470;2023-05-10T02:45:55;11.00;99.90
27439;DHT22;14887;51.252;7.470;2023-05-10T02:48:20;11.00;99.90
27439;DHT22;14887;51.252;7.470;2023-05-10T02:50:47;11.00;99.90
27439;DHT22;14887;51.252;7.470;2023-05-10T02:53:20;11.00;99.90
27439;DHT22;14887;51.252;7.470;2023-05-10T02:55:51;11.00;99.90
27439;DHT22;14887;51.252;7.470;2023-05-10T02:58:18;11.00;99.90
27439;DHT22;14887;51.252;7.470;2023-05-10T03:00:46;11.00;99.90
27439;DHT22;14887;51.252;7.470;2023-05-10T03:03:12;11.00;99.90
27439;DHT22;14887;51.252;7.470;2023-05-10T03:05:38;11.00;99.90
27439;DHT22;14887;51.252;7.470;2023-05-10T03:08:03;10.90;99.90
27439;DHT22;14887;51.252;7.470;2023-05-10T03:10:31;10.90;99.90
27439;DHT22;14887;51.252;7.470;2023-05-10T03:13:29;10.90;99.90
27439;DHT22;14887;51.252;7.470;2023-05-10T03:16:03;10.80;99.90
27439;DHT22;14887;51.252;7.470;2023-05-10T03:18:50;10.80;99.90
27439;DHT22;14887;51.252;7.470;2023-05-10T03:21:22;10.80;99.90
27439;DHT22;14887;51.252;7.470;2023-05-10T03:23:53;10.80;99.90
27439;DHT22;14887;51.252;7.470;2023-05-10T03:26:25;10.80;99.90
27439;DHT22;14887;51.252;7.470;2023-05-10T03:28:52;10.90;99.90
27439;DHT22;14887;51.252;7.470;2023-05-10T03:31:18;10.80;99.90
27439;DHT22;14887;51.252;7.470;2023-05-10T03:33:51;10.80;99.90
27439;DHT22;14887;51.252;7.470;2023-05-10T03:36:18;10.80;99.90
27439;DHT22;14887;51.252;7.470;2023-05-10T03:38:43;10.80;99.90
27439;DHT22;14887;51.252;7.470;2023-05-10T03:41:09;10.80;99.90
27439;DHT22;14887;51.252;7.470;2023-05-10T03:43:35;10.80;99.90
27439;DHT22;14887;51.252;7.470;2023-05-10T03:46:04;10.80;99.90
27439;DHT22;14887;51.252;7.470;2023-05-10T03:48:30;10.80;99.90
27439;DHT22;14887;51.252;7.470;2023-05-10T03:50:56;10.70;99.90
27439;DHT22;14887;51.252;7.470;2023-05-10T03:53:21;10.60;99.90
27439;DHT22;14887;51.252;7.470;2023-05-10T03:55:48;10.70;99.90
27439;DHT22;14887;51.252;7.470;2023-05-10T03:58:13;10.60;99.90
27439;DHT22;14887;51.252;7.470;2023-05-10T04:00:39;10.70;99.90
27439;DHT22;14887;51.252;7.470;2023-05-10T04:03:09;10.70;99.90
27439;DHT22;14887;51.252;7.470;2023-05-10T04:05:35;10.60;99.90
27439;DHT22;14887;51.252;7.470;2023-05-10T04:08:01;10.60;99.90
27439;DHT22;14887;51.252;7.470;2023-05-10T04:10:27;10.70;99.90
27439;DHT22;14887;51.252;7.470;2023-05-10T04:12:52;10.70;99.90
27439;DHT22;14887;51.252;7.470;2023-05-10T04:15:18;10.70;99.90
27439;DHT22;14887;51.252;7.470;2023-05-10T04:17:43;10.60;99.90
27439;DHT22;14887;51.252;7.470;2023-05-10T04:20:10;10.60;99.90
27439;DHT22;14887;51.252;7.470;2023-05-10T04:22:35;10.70;99.90
27439;DHT22;14887;51.252;7.470;2023-05-10T04:25:01;10.70;99.90
27439;DHT22;14887;51.252;7.470;2023-05-10T04:27:26;10.70;99.90
27439;DHT22;14887;51.252;7.470;2023-05-10T04:29:52;10.80;99.90
27439;DHT22;14887;51.252;7.470;2023-05-10T04:32:17;10.80;99.90
27439;DHT22;14887;51.252;7.470;2023-05-10T04:34:44;10.70;99.90
27439;DHT22;14887;51.252;7.470;2023-05-10T04:37:09;10.70;99.90
27439;DHT22;14887;51.252;7.470;2023-05-10T04:39:35;10.70;99.90
27439;DHT22;14887;51.252;7.470;2023-05-10T04:42:01;10.70;99.90
27439;DHT22;14887;51.252;7.470;2023-05-10T04:44:28;10.70;99.90
27439;DHT22;14887;51.252;7.470;2023-05-10T04:46:54;10.70;99.90
27439;DHT22;14887;51.252;7.470;2023-05-10T04:49:19;10.70;99.90
27439;DHT22;14887;51.252;7.470;2023-05-10T04:51:45;10.70;99.90
27439;DHT22;14887;51.252;7.470;2023-05-10T04:54:11;10.70;99.90
27439;DHT22;14887;51.252;7.470;2023-05-10T04:56:36;10.70;99.90
27439;DHT22;14887;51.252;7.470;2023-05-10T04:59:02;10.70;99.90
27439;DHT22;14887;51.252;7.470;2023-05-10T05:01:27;10.70;99.90
27439;DHT22;14887;51.252;7.470;2023-05-10T05:03:53;10.70;99.90
27439;DHT22;14887;51.252;7.470;2023-05-10T05:06:19;10.70;99.90
27439;DHT22;14887;51.252;7.470;2023-05-10T05:08:46;10.70;99.90
27439;DHT22;14887;51.252;7.470;2023-05-10T05:11:11;10.70;99.90
27439;DHT22;14887;51.252;7.470;2023-05-10T05:13:37;10.70;99.90
27439;DHT22;14887;51.252;7.470;2023-05-10T05:16:03;10.70;99.90
27439;DHT22;14887;51.252;7.470;2023-05-10T05:18:28;10.70;99.90
27439;DHT22;14887;51.252;7.470;2023-05-10T05:20:54;10.60;99.90
27439;DHT22;14887;51.252;7.470;2023-05-10T05:23:19;10.80;99.90
27439;DHT22;14887;51.252;7.470;2023-05-10T05:25:46;10.70;99.90
27439;DHT22;14887;51.252;7.470;2023-05-10T05:28:12;10.70;99.90
27439;DHT22;14887;51.252;7.470;2023-05-10T05:30:37;10.80;99.90
27439;DHT22;14887;51.252;7.470;2023-05-10T05:33:03;10.80;99.90
27439;DHT22;14887;51.252;7.470;2023-05-10T05:35:29;10.80;99.90
27439;DHT22;14887;51.252;7.470;2023-05-10T05:37:54;10.80;99.90
27439;DHT22;14887;51.252;7.470;2023-05-10T05:40:21;10.80;99.90
27439;DHT22;14887;51.252;7.470;2023-05-10T05:42:46;10.80;99.90
27439;DHT22;14887;51.252;7.470;2023-05-10T05:45:12;10.90;99.90
27439;DHT22;14887;51.252;7.470;2023-05-10T05:47:40;10.80;99.90
27439;DHT22;14887;51.252;7.470;2023-05-10T05:50:06;10.90;99.90
27439;DHT22;14887;51.252;7.470;2023-05-10T05:52:33;10.90;99.90
27439;DHT22;14887;51.252;7.470;2023-05-10T05:54:58;10.90;99.90
27439;DHT22;14887;51.252;7.470;2023-05-10T05:57:24;11.00;99.90
27439;DHT22;14887;51.252;7.470;2023-05-10T05:59:51;11.00;99.90
27439;DHT22;14887;51.252;7.470;2023-05-10T06:02:17;11.00;99.90
27439;DHT22;14887;51.252;7.470;2023-05-10T06:04:43;11.00;99.90
27439;DHT22;14887;51.252;7.470;2023-05-10T06:07:08;11.00;99.90
27439;DHT22;14887;51.252;7.470;2023-05-10T06:09:34;11.20;99.90
27439;DHT22;14887;51.252;7.470;2023-05-10T06:11:59;11.20;99.90
27439;DHT22;14887;51.252;7.470;2023-05-10T06:14:25;11.20;99.90
27439;DHT22;14887;51.252;7.470;2023-05-10T06:16:50;11.30;99.90
27439;DHT22;14887;51.252;7.470;2023-05-10T06:19:16;11.30;99.90
27439;DHT22;14887;51.252;7.470;2023-05-10T06:21:42;11.30;99.90
27439;DHT22;14887;51.252;7.470;2023-05-10T06:24:07;11.30;99.90
27439;DHT22;14887;51.252;7.470;2023-05-10T06:26:33;11.30;99.90
27439;DHT22;14887;51.252;7.470;2023-05-10T06:28:59;11.40;99.90
27439;DHT22;14887;51.252;7.470;2023-05-10T06:31:24;11.30;99.90
27439;DHT22;14887;51.252;7.470;2023-05-10T06:33:50;11.20;99.90
27439;DHT22;14887;51.252;7.470;2023-05-10T06:36:16;11.30;99.90
27439;DHT22;14887;51.252;7.470;2023-05-10T06:38:41;11.30;99.90
27439;DHT22;14887;51.252;7.470;2023-05-10T06:41:07;11.30;99.90
27439;DHT22;14887;51.252;7.470;2023-05-10T06:43:33;11.40;99.90
27439;DHT22;14887;51.252;7.470;2023-05-10T06:45:58;11.50;99.90
27439;DHT22;14887;51.252;7.470;2023-05-10T06:48:24;11.60;99.90
27439;DHT22;14887;51.252;7.470;2023-05-10T06:50:50;11.70;99.90
27439;DHT22;14887;51.252;7.470;2023-05-10T06:53:15;11.80;99.90
27439;DHT22;14887;51.252;7.470;2023-05-10T06:55:41;11.80;99.90
27439;DHT22;14887;51.252;7.470;2023-05-10T06:58:06;11.80;99.90
27439;DHT22;14887;51.252;7.470;2023-05-10T07:00:32;11.90;99.90
27439;DHT22;14887;51.252;7.470;2023-05-10T07:02:57;12.10;99.90
27439;DHT22;14887;51.252;7.470;2023-05-10T07:05:23;12.50;99.90
27439;DHT22;14887;51.252;7.470;2023-05-10T07:07:49;13.20;99.90
27439;DHT22;14887;51.252;7.470;2023-05-10T07:10:15;13.50;99.90
27439;DHT22;14887;51.252;7.470;2023-05-10T07:12:40;13.50;99.90
27439;DHT22;14887;51.252;7.470;2023-05-10T07:15:06;13.50;99.90
27439;DHT22;14887;51.252;7.470;2023-05-10T07:17:32;13.70;99.90
27439;DHT22;14887;51.252;7.470;2023-05-10T07:19:59;13.70;99.90
27439;DHT22;14887;51.252;7.470;2023-05-10T07:22:25;13.80;99.90
27439;DHT22;14887;51.252;7.470;2023-05-10T07:24:51;13.70;99.90
27439;DHT22;14887;51.252;7.470;2023-05-10T07:27:16;13.60;99.90
27439;DHT22;14887;51.252;7.470;2023-05-10T07:29:42;13.40;99.90
27439;DHT22;14887;51.252;7.470;2023-05-10T07:32:07;13.10;99.90
27439;DHT22;14887;51.252;7.470;2023-05-10T07:34:33;12.80;99.90
27439;DHT22;14887;51.252;7.470;2023-05-10T07:36:59;12.70;99.90
27439;DHT22;14887;51.252;7.470;2023-05-10T07:39:26;12.50;99.90
27439;DHT22;14887;51.252;7.470;2023-05-10T07:41:51;12.30;99.90
27439;DHT22;14887;51.252;7.470;2023-05-10T07:44:17;12.20;99.90
27439;DHT22;14887;51.252;7.470;2023-05-10T07:46:46;12.20;99.90
27439;DHT22;14887;51.252;7.470;2023-05-10T07:49:11;12.20;99.90
27439;DHT22;14887;51.252;7.470;2023-05-10T07:51:37;12.10;99.90
27439;DHT22;14887;51.252;7.470;2023-05-10T07:54:02;12.10;99.90
27439;DHT22;14887;51.252;7.470;2023-05-10T07:56:30;12.30;99.90
27439;DHT22;14887;51.252;7.470;2023-05-10T07:59:00;12.40;99.90
27439;DHT22;14887;51.252;7.470;2023-05-10T08:01:29;12.60;99.90
27439;DHT22;14887;51.252;7.470;2023-05-10T08:03:55;12.70;99.90
27439;DHT22;14887;51.252;7.470;2023-05-10T08:06:20;12.90;99.90
27439;DHT22;14887;51.252;7.470;2023-05-10T08:08:47;12.80;99.90
27439;DHT22;14887;51.252;7.470;2023-05-10T08:11:18;12.90;99.90
27439;DHT22;14887;51.252;7.470;2023-05-10T08:13:44;12.70;99.90
27439;DHT22;14887;51.252;7.470;2023-05-10T08:16:10;12.70;99.90
27439;DHT22;14887;51.252;7.470;2023-05-10T08:18:37;12.70;99.90
27439;DHT22;14887;51.252;7.470;2023-05-10T08:21:02;12.70;99.90
27439;DHT22;14887;51.252;7.470;2023-05-10T08:23:28;12.70;99.90
27439;DHT22;14887;51.252;7.470;2023-05-10T08:25:53;12.70;99.90
27439;DHT22;14887;51.252;7.470;2023-05-10T08:28:19;12.70;99.90
27439;DHT22;14887;51.252;7.470;2023-05-10T08:30:44;12.80;99.90
27439;DHT22;14887;51.252;7.470;2023-05-10T08:33:10;12.80;99.90
27439;DHT22;14887;51.252;7.470;2023-05-10T08:35:35;13.20;99.90
27439;DHT22;14887;51.252;7.470;2023-05-10T08:38:01;14.20;99.90
27439;DHT22;14887;51.252;7.470;2023-05-10T08:40:27;15.40;99.90
27439;DHT22;14887;51.252;7.470;2023-05-10T08:43:07;16.80;1.00
27439;DHT22;14887;51.252;7.470;2023-05-10T08:45:36;17.30;1.00
27439;DHT22;14887;51.252;7.470;2023-05-10T08:48:05;18.10;1.00
27439;DHT22;14887;51.252;7.470;2023-05-10T08:50:32;18.00;1.00
27439;DHT22;14887;51.252;7.470;2023-05-10T08:53:00;17.00;99.90
27439;DHT22;14887;51.252;7.470;2023-05-10T08:55:29;17.10;1.00
27439;DHT22;14887;51.252;7.470;2023-05-10T08:57:55;18.30;99.90
27439;DHT22;14887;51.252;7.470;2023-05-10T09:00:21;19.10;99.90
27439;DHT22;14887;51.252;7.470;2023-05-10T09:02:49;18.30;99.90
27439;DHT22;14887;51.252;7.470;2023-05-10T09:05:15;17.60;99.90
27439;DHT22;14887;51.252;7.470;2023-05-10T09:07:41;17.70;99.90
27439;DHT22;14887;51.252;7.470;2023-05-10T09:10:08;18.90;99.90
27439;DHT22;14887;51.252;7.470;2023-05-10T09:12:35;19.90;1.00
27439;DHT22;14887;51.252;7.470;2023-05-10T09:15:00;20.30;99.90
27439;DHT22;14887;51.252;7.470;2023-05-10T09:17:27;19.70;89.40
27439;DHT22;14887;51.252;7.470;2023-05-10T09:20:01;18.40;1.00
27439;DHT22;14887;51.252;7.470;2023-05-10T09:22:27;17.20;99.90
27439;DHT22;14887;51.252;7.470;2023-05-10T09:25:13;16.30;1.00
27439;DHT22;14887;51.252;7.470;2023-05-10T09:27:40;15.60;1.00
27439;DHT22;14887;51.252;7.470;2023-05-10T09:30:06;15.20;26.50
27439;DHT22;14887;51.252;7.470;2023-05-10T09:32:41;15.20;36.00
27439;DHT22;14887;51.252;7.470;2023-05-10T09:35:11;15.40;88.00
27439;DHT22;14887;51.252;7.470;2023-05-10T09:37:40;16.00;83.00
27439;DHT22;14887;51.252;7.470;2023-05-10T09:40:14;16.60;1.00
27439;DHT22;14887;51.252;7.470;2023-05-10T09:42:54;17.20;1.00
27439;DHT22;14887;51.252;7.470;2023-05-10T09:45:21;17.10;99.90
27439;DHT22;14887;51.252;7.470;2023-05-10T09:47:47;17.50;99.90
27439;DHT22;14887;51.252;7.470;2023-05-10T09:50:13;18.00;99.90
27439;DHT22;14887;51.252;7.470;2023-05-10T09:52:55;17.70;1.00
27439;DHT22;14887;51.252;7.470;2023-05-10T09:55:38;17.50;99.90
27439;DHT22;14887;51.252;7.470;2023-05-10T09:58:04;17.20;99.90
27439;DHT22;14887;51.252;7.470;2023-05-10T10:00:58;17.70;99.90
27439;DHT22;14887;51.252;7.470;2023-05-10T10:03:23;17.70;1.00
27439;DHT22;14887;51.252;7.470;2023-05-10T10:05:49;17.50;1.00
27439;DHT22;14887;51.252;7.470;2023-05-10T10:08:17;17.40;99.90
27439;DHT22;14887;51.252;7.470;2023-05-10T10:10:43;17.50;99.90
27439;DHT22;14887;51.252;7.470;2023-05-10T10:13:10;17.50;99.90
27439;DHT22;14887;51.252;7.470;2023-05-10T10:15:36;17.20;1.00
27439;DHT22;14887;51.252;7.470;2023-05-10T10:18:02;16.70;99.90
27439;DHT22;14887;51.252;7.470;2023-05-10T10:20:29;16.30;1.00
27439;DHT22;14887;51.252;7.470;2023-05-10T10:22:55;16.00;1.00
27439;DHT22;14887;51.252;7.470;2023-05-10T10:25:21;15.60;1.00
27439;DHT22;14887;51.252;7.470;2023-05-10T10:30:28;14.90;71.80
27439;DHT22;14887;51.252;7.470;2023-05-10T10:35:59;15.00;90.80
27439;DHT22;14887;51.252;7.470;2023-05-10T10:38:25;14.90;94.10
27439;DHT22;14887;51.252;7.470;2023-05-10T10:41:11;14.90;48.50
27439;DHT22;14887;51.252;7.470;2023-05-10T10:44:24;14.80;66.60
27439;DHT22;14887;51.252;7.470;2023-05-10T10:49:43;15.10;35.20
27439;DHT22;14887;51.252;7.470;2023-05-10T10:52:31;15.00;14.00
27439;DHT22;14887;51.252;7.470;2023-05-10T10:55:20;14.80;1.00
27439;DHT22;14887;51.252;7.470;2023-05-10T10:57:54;14.50;35.20
27439;DHT22;14887;51.252;7.470;2023-05-10T11:00:36;14.20;57.70
27439;DHT22;14887;51.252;7.470;2023-05-10T11:03:11;13.70;57.70
27439;DHT22;14887;51.252;7.470;2023-05-10T11:05:46;13.60;94.20
27439;DHT22;14887;51.252;7.470;2023-05-10T11:08:28;13.60;79.70
27439;DHT22;14887;51.252;7.470;2023-05-10T11:13:30;13.40;75.50
27439;DHT22;14887;51.252;7.470;2023-05-10T11:15:56;13.40;58.10
27439;DHT22;14887;51.252;7.470;2023-05-10T11:18:28;13.30;55.40
27439;DHT22;14887;51.252;7.470;2023-05-10T11:20:58;13.00;55.50
27439;DHT22;14887;51.252;7.470;2023-05-10T11:23:47;13.00;41.40
27439;DHT22;14887;51.252;7.470;2023-05-10T11:26:13;13.00;30.70
27439;DHT22;14887;51.252;7.470;2023-05-10T11:28:48;13.10;27.30
27439;DHT22;14887;51.252;7.470;2023-05-10T11:31:15;13.10;30.60
27439;DHT22;14887;51.252;7.470;2023-05-10T11:38:42;13.00;49.20
27439;DHT22;14887;51.252;7.470;2023-05-10T11:41:09;13.20;49.70
27439;DHT22;14887;51.252;7.470;2023-05-10T11:43:37;13.50;66.00
27439;DHT22;14887;51.252;7.470;2023-05-10T11:46:04;13.70;75.10
27439;DHT22;14887;51.252;7.470;2023-05-10T11:48:31;13.90;99.90
27439;DHT22;14887;51.252;7.470;2023-05-10T11:50:56;14.20;96.50
27439;DHT22;14887;51.252;7.470;2023-05-10T11:53:25;14.60;95.00
27439;DHT22;14887;51.252;7.470;2023-05-10T11:55:50;14.60;67.60
27439;DHT22;14887;51.252;7.470;2023-05-10T11:58:18;14.70;65.30
27439;DHT22;14887;51.252;7.470;2023-05-10T12:00:44;14.60;71.50
27439;DHT22;14887;51.252;7.470;2023-05-10T12:03:10;14.50;48.60
27439;DHT22;14887;51.252;7.470;2023-05-10T12:05:36;14.40;30.60
27439;DHT22;14887;51.252;7.470;2023-05-10T12:08:15;14.50;69.30
27439;DHT22;14887;51.252;7.470;2023-05-10T12:10:41;14.80;44.40
27439;DHT22;14887;51.252;7.470;2023-05-10T12:13:14;15.00;1.00
27439;DHT22;14887;51.252;7.470;2023-05-10T12:15:40;15.20;1.00
27439;DHT22;14887;51.252;7.470;2023-05-10T12:18:09;16.40;1.00
27439;DHT22;14887;51.252;7.470;2023-05-10T12:20:35;17.10;99.90
27439;DHT22;14887;51.252;7.470;2023-05-10T12:23:02;16.80;1.00
27439;DHT22;14887;51.252;7.470;2023-05-10T12:25:36;16.50;99.90
27439;DHT22;14887;51.252;7.470;2023-05-10T12:28:09;15.80;99.90
27439;DHT22;14887;51.252;7.470;2023-05-10T12:30:37;15.60;1.00
27439;DHT22;14887;51.252;7.470;2023-05-10T12:33:12;15.30;1.00
27439;DHT22;14887;51.252;7.470;2023-05-10T12:35:45;15.20;1.00
27439;DHT22;14887;51.252;7.470;2023-05-10T12:41:22;15.40;1.00
27439;DHT22;14887;51.252;7.470;2023-05-10T12:43:47;16.00;99.90
27439;DHT22;14887;51.252;7.470;2023-05-10T12:46:16;16.60;1.00
27439;DHT22;14887;51.252;7.470;2023-05-10T12:48:43;17.10;1.00
27439;DHT22;14887;51.252;7.470;2023-05-10T12:51:09;17.70;99.90
27439;DHT22;14887;51.252;7.470;2023-05-10T12:53:37;17.90;1.00
27439;DHT22;14887;51.252;7.470;2023-05-10T12:56:03;17.60;72.50
27439;DHT22;14887;51.252;7.470;2023-05-10T12:58:28;17.40;99.90
27439;DHT22;14887;51.252;7.470;2023-05-10T13:00:54;16.90;1.00
27439;DHT22;14887;51.252;7.470;2023-05-10T13:03:21;16.60;1.00
27439;DHT22;14887;51.252;7.470;2023-05-10T13:05:47;16.50;1.00
27439;DHT22;14887;51.252;7.470;2023-05-10T13:08:13;16.40;1.00
27439;DHT22;14887;51.252;7.470;2023-05-10T13:10:38;16.20;1.00
27439;DHT22;14887;51.252;7.470;2023-05-10T13:13:04;16.10;1.00
27439;DHT22;14887;51.252;7.470;2023-05-10T13:15:30;15.80;1.00
27439;DHT22;14887;51.252;7.470;2023-05-10T13:17:56;15.70;1.00
27439;DHT22;14887;51.252;7.470;2023-05-10T13:20:21;15.50;99.90
27439;DHT22;14887;51.252;7.470;2023-05-10T13:22:47;15.50;99.90
27439;DHT22;14887;51.252;7.470;2023-05-10T13:25:13;15.70;99.90
27439;DHT22;14887;51.252;7.470;2023-05-10T13:27:39;16.00;1.00
27439;DHT22;14887;51.252;7.470;2023-05-10T13:30:06;16.50;1.00
27439;DHT22;14887;51.252;7.470;2023-05-10T13:32:32;16.80;1.00
27439;DHT22;14887;51.252;7.470;2023-05-10T13:34:58;16.80;99.90
27439;DHT22;14887;51.252;7.470;2023-05-10T13:37:23;16.80;99.90
27439;DHT22;14887;51.252;7.470;2023-05-10T13:39:49;16.70;1.00
27439;DHT22;14887;51.252;7.470;2023-05-10T13:42:15;16.60;99.90
27439;DHT22;14887;51.252;7.470;2023-05-10T13:44:40;16.40;1.00
27439;DHT22;14887;51.252;7.470;2023-05-10T13:47:06;16.20;1.00
27439;DHT22;14887;51.252;7.470;2023-05-10T13:49:31;16.00;99.90
27439;DHT22;14887;51.252;7.470;2023-05-10T13:51:57;15.90;99.90
27439;DHT22;14887;51.252;7.470;2023-05-10T13:54:23;16.00;99.90
27439;DHT22;14887;51.252;7.470;2023-05-10T13:56:49;16.00;44.90
27439;DHT22;14887;51.252;7.470;2023-05-10T13:59:15;16.10;99.90
27439;DHT22;14887;51.252;7.470;2023-05-10T14:01:41;16.40;1.00
27439;DHT22;14887;51.252;7.470;2023-05-10T14:04:08;16.40;1.00
27439;DHT22;14887;51.252;7.470;2023-05-10T14:06:35;16.40;1.00
27439;DHT22;14887;51.252;7.470;2023-05-10T14:09:02;16.60;1.00
27439;DHT22;14887;51.252;7.470;2023-05-10T14:11:27;16.60;1.00
27439;DHT22;14887;51.252;7.470;2023-05-10T14:13:53;16.40;1.00
27439;DHT22;14887;51.252;7.470;2023-05-10T14:16:19;16.00;1.00
27439;DHT22;14887;51.252;7.470;2023-05-10T14:18:45;15.70;99.90
27439;DHT22;14887;51.252;7.470;2023-05-10T14:21:11;15.60;99.90
27439;DHT22;14887;51.252;7.470;2023-05-10T14:23:37;15.70;99.90
27439;DHT22;14887;51.252;7.470;2023-05-10T14:26:02;15.70;1.00
27439;DHT22;14887;51.252;7.470;2023-05-10T14:28:28;16.00;99.90
27439;DHT22;14887;51.252;7.470;2023-05-10T14:30:54;17.00;1.00
27439;DHT22;14887;51.252;7.470;2023-05-10T14:33:19;17.80;1.00
27439;DHT22;14887;51.252;7.470;2023-05-10T14:35:46;18.30;99.90
27439;DHT22;14887;51.252;7.470;2023-05-10T14:38:12;18.70;1.00
27439;DHT22;14887;51.252;7.470;2023-05-10T14:40:38;19.70;99.90
27439;DHT22;14887;51.252;7.470;2023-05-10T14:43:03;19.90;1.00
27439;DHT22;14887;51.252;7.470;2023-05-10T14:45:29;19.10;1.00
27439;DHT22;14887;51.252;7.470;2023-05-10T14:47:54;18.40;1.00
27439;DHT22;14887;51.252;7.470;2023-05-10T14:50:20;18.20;99.90
27439;DHT22;14887;51.252;7.470;2023-05-10T14:52:46;17.80;99.90
27439;DHT22;14887;51.252;7.470;2023-05-10T14:55:11;17.60;1.00
27439;DHT22;14887;51.252;7.470;2023-05-10T14:57:38;17.70;99.90
27439;DHT22;14887;51.252;7.470;2023-05-10T15:00:04;18.30;99.90
27439;DHT22;14887;51.252;7.470;2023-05-10T15:02:31;18.40;1.00
27439;DHT22;14887;51.252;7.470;2023-05-10T15:04:57;18.30;1.00
27439;DHT22;14887;51.252;7.470;2023-05-10T15:07:23;18.30;1.00
27439;DHT22;14887;51.252;7.470;2023-05-10T15:09:49;18.30;1.00
27439;DHT22;14887;51.252;7.470;2023-05-10T15:12:15;18.30;1.00
27439;DHT22;14887;51.252;7.470;2023-05-10T15:14:41;18.30;1.00
27439;DHT22;14887;51.252;7.470;2023-05-10T15:17:06;17.90;1.00
27439;DHT22;14887;51.252;7.470;2023-05-10T15:19:32;17.80;1.00
27439;DHT22;14887;51.252;7.470;2023-05-10T15:21:58;17.80;1.00
27439;DHT22;14887;51.252;7.470;2023-05-10T15:24:24;18.10;99.90
27439;DHT22;14887;51.252;7.470;2023-05-10T15:26:50;18.40;99.90
27439;DHT22;14887;51.252;7.470;2023-05-10T15:29:15;18.40;99.90
27439;DHT22;14887;51.252;7.470;2023-05-10T15:31:46;18.30;99.90
27439;DHT22;14887;51.252;7.470;2023-05-10T15:34:11;18.00;99.90
27439;DHT22;14887;51.252;7.470;2023-05-10T15:36:37;17.80;99.90
27439;DHT22;14887;51.252;7.470;2023-05-10T15:39:02;17.50;72.40
27439;DHT22;14887;51.252;7.470;2023-05-10T15:41:29;17.40;1.00
27439;DHT22;14887;51.252;7.470;2023-05-10T15:43:55;17.40;1.00
27439;DHT22;14887;51.252;7.470;2023-05-10T15:46:20;17.70;99.90
27439;DHT22;14887;51.252;7.470;2023-05-10T15:48:46;17.80;99.90
27439;DHT22;14887;51.252;7.470;2023-05-10T15:51:12;18.00;1.00
27439;DHT22;14887;51.252;7.470;2023-05-10T15:53:38;18.80;39.80
27439;DHT22;14887;51.252;7.470;2023-05-10T15:56:03;20.00;25.70
27439;DHT22;14887;51.252;7.470;2023-05-10T15:58:30;20.80;99.90
27439;DHT22;14887;51.252;7.470;2023-05-10T16:00:55;20.50;99.90
27439;DHT22;14887;51.252;7.470;2023-05-10T16:03:22;20.50;99.90
27439;DHT22;14887;51.252;7.470;2023-05-10T16:05:47;20.20;99.90